Dawson, IA (50066)

10:51 AM CST on December 07, 2016 (GMT -0600)
| | Change Station

Elev -9999 ft 0.00 °N, 0.00 °E | Updated

Partly Cloudy
Partly Cloudy
23 °F
Feels Like 9 °F
N
17
Wind Variable Wind from WNW
Gusts 22 mph

Today
High -- | Low -- °F
--% Chance of Precip.
Yesterday
High -- | Low -- °F
Precip. -- in
Pressure 30.25 in
Visibility 10.0 miles
Clouds Clear
Windchill 9 °F
Dew Point 10 °F
Humidity 57%
Rainfall --
Snow Depth Not available.
7:31 AM 4:45 PM
First Quarter, 54% visible
METAR KPRO 071635Z AUTO 28014G17KT 10SM CLR M07/M10 A3025 RMK AO2 T10701103
Pressure 30.25 in
Visibility 10.0 miles
Clouds Clear
Windchill 9 °F
Dew Point 10 °F
Humidity 57%
Rainfall --
Snow Depth Not available.
7:31 AM 4:45 PM
First Quarter, 54% visible
METAR KPRO 071635Z AUTO 28014G17KT 10SM CLR M07/M10 A3025 RMK AO2 T10701103

10-Day Weather Forecast

Almanac

Astronomy

Dec. 07, 2016 Rise Set
Actual Time
Civil Twilight
Nautical Twilight
Astronomical Twilight
Moon
Length of Visible Light
Length of Day
Tomorrow will be .
, % of the Moon is Illuminated

Today's Extremes

State Highs State Lows

Community

WunderPhotos

Upload Photos

1,956,132 photos uploaded!

WunderBlog® & News

Nearby

Air Quality

  Air Quality AQ Index Pollutant
Not available.

Snow Depth

Station Depth Elevation

Earthquake Activity

City Distance Mag. Time & Date
Minimum magnitude displayed is 2.5.

Coastal Water Temperatures

Place Temperature

Stations

Nearby Weather Stations

Station Location Temp. Windchill Dew Point Humidity Wind Precip. Elev Updated Type
                   

Watches & Warnings

There are currently no watches in effect.